createdAt,value
2023-02-15T00:00:21.666Z,62.10
2023-02-15T00:02:48.657Z,66.47
2023-02-15T00:05:15.988Z,65.40
2023-02-15T00:07:42.980Z,67.00
2023-02-15T00:10:10.440Z,59.65
2023-02-15T00:12:37.421Z,59.00
2023-02-15T00:15:07.285Z,56.20
2023-02-15T00:17:34.219Z,55.95
2023-02-15T00:20:01.100Z,57.35
2023-02-15T00:22:28.056Z,63.28
2023-02-15T00:24:55.042Z,64.45
2023-02-15T00:27:22.105Z,62.08
2023-02-15T00:29:49.078Z,60.83
2023-02-15T00:32:16.195Z,54.97
2023-02-15T00:34:44.295Z,60.60
2023-02-15T00:37:11.249Z,60.53
2023-02-15T00:39:38.230Z,56.38
2023-02-15T00:42:06.482Z,58.78
2023-02-15T00:44:33.500Z,70.43
2023-02-15T00:47:00.437Z,63.17
2023-02-15T00:49:27.450Z,71.05
2023-02-15T00:51:54.592Z,63.75
2023-02-15T00:54:22.008Z,57.97
2023-02-15T00:56:50.582Z,61.58
2023-02-15T00:59:17.693Z,63.65
2023-02-15T01:01:44.569Z,62.25
2023-02-15T01:04:13.043Z,63.35
2023-02-15T01:06:39.981Z,63.33
2023-02-15T01:09:07.009Z,65.55
2023-02-15T01:11:33.960Z,65.22
2023-02-15T01:14:00.915Z,63.30
2023-02-15T01:16:30.224Z,59.10
2023-02-15T01:18:57.305Z,58.30
2023-02-15T01:21:27.386Z,57.42
2023-02-15T01:23:55.199Z,60.20
2023-02-15T01:26:22.310Z,59.17
2023-02-15T01:28:49.326Z,66.20
2023-02-15T01:31:21.250Z,59.22
2023-02-15T01:33:49.042Z,61.05
2023-02-15T01:36:18.246Z,60.95
2023-02-15T01:38:46.656Z,57.65
2023-02-15T01:41:27.264Z,61.78
2023-02-15T01:43:57.496Z,59.80
2023-02-15T01:46:39.421Z,66.65
2023-02-15T01:49:19.746Z,55.67
2023-02-15T01:51:51.111Z,67.18
2023-02-15T01:54:36.733Z,64.13
2023-02-15T01:57:11.902Z,66.60
2023-02-15T01:59:42.005Z,59.90
2023-02-15T02:02:14.416Z,67.30
2023-02-15T02:04:49.462Z,66.15
2023-02-15T02:07:24.653Z,63.22
2023-02-15T02:10:01.274Z,60.00
2023-02-15T02:12:30.864Z,62.40
2023-02-15T02:14:58.537Z,66.60
2023-02-15T02:17:59.844Z,63.55
2023-02-15T02:20:57.169Z,64.90
2023-02-15T02:24:14.319Z,66.95
2023-02-15T02:27:33.803Z,63.15
2023-02-15T02:30:21.238Z,52.53
2023-02-15T02:33:03.170Z,56.47
2023-02-15T02:35:59.273Z,63.28
2023-02-15T02:38:59.605Z,58.75
2023-02-15T02:41:57.323Z,55.80
2023-02-15T02:44:36.294Z,55.88
2023-02-15T02:47:28.359Z,62.25
2023-02-15T02:50:04.221Z,62.40
2023-02-15T02:52:45.738Z,58.97
2023-02-15T02:55:23.711Z,61.90
2023-02-15T02:58:38.153Z,67.32
2023-02-15T03:01:14.250Z,63.42
2023-02-15T03:03:59.928Z,62.15
2023-02-15T03:06:51.333Z,62.33
2023-02-15T03:09:35.783Z,63.53
2023-02-15T03:12:07.867Z,58.10
2023-02-15T03:14:43.240Z,60.88
2023-02-15T03:17:14.915Z,67.10
2023-02-15T03:19:48.855Z,64.05
2023-02-15T03:22:24.461Z,65.90
2023-02-15T03:25:20.549Z,59.28
2023-02-15T03:27:56.811Z,59.03
2023-02-15T03:30:26.303Z,63.83
2023-02-15T03:32:58.988Z,68.47
2023-02-15T03:35:38.514Z,63.55
2023-02-15T03:38:10.726Z,65.75
2023-02-15T03:41:04.618Z,65.85
2023-02-15T03:43:55.026Z,63.85
2023-02-15T03:46:41.048Z,65.35
2023-02-15T03:49:17.567Z,69.13
2023-02-15T03:51:52.574Z,72.72
2023-02-15T03:59:28.231Z,72.32
2023-02-15T04:02:11.567Z,76.50
2023-02-15T04:04:50.144Z,68.32
2023-02-15T04:07:20.634Z,59.67
2023-02-15T04:10:06.215Z,61.95
2023-02-15T04:12:33.619Z,60.40
2023-02-15T04:15:19.096Z,66.57
2023-02-15T04:17:46.001Z,66.47
2023-02-15T04:20:31.723Z,59.22
2023-02-15T04:26:10.629Z,54.40
2023-02-15T05:41:38.671Z,51.95
2023-02-15T05:44:05.981Z,52.17
2023-02-15T05:46:32.955Z,55.42
2023-02-15T05:48:59.992Z,49.05
2023-02-15T05:51:26.864Z,52.42
2023-02-15T05:53:53.844Z,46.15
2023-02-15T05:56:20.782Z,47.35
2023-02-15T05:58:47.717Z,52.10
2023-02-15T06:01:22.122Z,51.15
2023-02-15T06:03:49.196Z,52.83
2023-02-15T06:06:16.872Z,49.92
2023-02-15T06:08:44.190Z,52.03
2023-02-15T06:11:11.752Z,46.30
2023-02-15T09:18:26.387Z,22.23
2023-02-15T09:20:53.769Z,19.15
2023-02-15T09:23:27.231Z,17.50
2023-02-15T09:27:18.171Z,18.77
2023-02-15T09:29:45.748Z,19.80
2023-02-15T09:32:18.593Z,20.08
2023-02-15T09:34:49.564Z,22.73
2023-02-15T09:37:16.871Z,21.90
2023-02-15T09:40:25.402Z,18.65
2023-02-15T09:44:01.418Z,19.67
2023-02-15T09:46:43.780Z,20.98
2023-02-15T09:50:06.668Z,19.35
2023-02-15T09:54:16.154Z,22.05
2023-02-15T09:57:45.453Z,20.15
2023-02-15T10:00:38.092Z,21.13
2023-02-15T10:03:29.137Z,22.88
2023-02-15T10:06:33.886Z,25.40
2023-02-15T10:10:15.344Z,24.80
2023-02-15T10:12:53.096Z,25.60
2023-02-15T10:15:44.556Z,21.77
2023-02-15T10:19:39.904Z,24.65
2023-02-15T10:22:45.274Z,23.60
2023-02-15T10:25:47.392Z,26.08
2023-02-15T10:28:32.729Z,25.35
2023-02-15T10:31:14.160Z,21.95
2023-02-15T10:33:44.402Z,20.08
2023-02-15T10:36:53.247Z,27.17
2023-02-15T10:39:41.201Z,24.67
2023-02-15T10:42:55.131Z,23.45
2023-02-15T10:46:09.574Z,24.17
2023-02-15T10:49:08.943Z,25.02
2023-02-15T10:51:54.472Z,24.20
2023-02-15T10:55:13.562Z,22.67
2023-02-15T10:58:09.152Z,26.75
2023-02-15T11:00:52.825Z,23.30
2023-02-15T11:03:34.787Z,29.20
2023-02-15T11:06:14.197Z,33.75
2023-02-15T11:08:46.847Z,24.73
2023-02-15T11:11:23.990Z,28.10
2023-02-15T11:14:02.097Z,26.05
2023-02-15T11:16:46.076Z,29.05
2023-02-15T11:19:23.828Z,24.50
2023-02-15T11:21:59.200Z,26.83
2023-02-15T11:24:31.000Z,21.27
2023-02-15T11:27:15.943Z,26.92
2023-02-15T11:29:47.970Z,24.30
2023-02-15T11:32:27.179Z,24.73
2023-02-15T11:35:23.485Z,32.28
2023-02-15T11:38:16.742Z,26.25
2023-02-15T11:40:57.461Z,27.02
2023-02-15T11:43:51.000Z,25.33
2023-02-15T11:46:20.111Z,27.02
2023-02-15T11:48:47.137Z,23.90
2023-02-15T11:51:20.154Z,22.15
2023-02-15T11:53:48.709Z,21.75
2023-02-15T11:56:18.910Z,27.02
2023-02-15T11:59:12.625Z,31.15
2023-02-15T12:01:45.652Z,41.53
2023-02-15T12:04:33.844Z,33.95
2023-02-15T12:07:31.009Z,23.63
2023-02-15T12:10:15.008Z,28.83
2023-02-15T12:12:42.110Z,23.48
2023-02-15T12:15:12.388Z,29.92
2023-02-15T12:17:53.004Z,21.55
2023-02-15T12:20:20.054Z,23.55
2023-02-15T12:23:04.956Z,42.08
2023-02-15T12:25:55.780Z,21.75
2023-02-15T12:28:38.353Z,24.67
2023-02-15T12:31:25.923Z,21.80
2023-02-15T12:33:58.249Z,26.95
2023-02-15T12:36:47.526Z,22.35
2023-02-15T12:39:14.500Z,30.08
2023-02-15T12:42:25.410Z,25.52
2023-02-15T12:45:05.005Z,26.00
2023-02-15T12:47:33.395Z,22.67
2023-02-15T12:50:34.661Z,29.05
2023-02-15T12:53:24.042Z,22.00
2023-02-15T12:56:05.156Z,25.20
2023-02-15T12:58:38.794Z,20.77
2023-02-15T13:01:17.023Z,25.95
2023-02-15T13:04:14.879Z,26.50
2023-02-15T13:06:50.770Z,21.92
2023-02-15T13:09:33.829Z,24.65
2023-02-15T13:12:16.591Z,26.35
2023-02-15T13:14:52.428Z,22.02
2023-02-15T13:17:35.663Z,20.98
2023-02-15T13:20:17.305Z,22.13
2023-02-15T13:22:49.001Z,22.58
2023-02-15T13:25:26.637Z,22.45
2023-02-15T13:28:01.398Z,30.20
2023-02-15T13:30:39.578Z,23.30
2023-02-15T13:33:14.347Z,22.25
2023-02-15T13:35:58.856Z,22.45
2023-02-15T13:38:50.565Z,23.33
2023-02-15T13:41:28.437Z,24.98
2023-02-15T13:44:47.833Z,27.48
2023-02-15T13:48:14.518Z,27.67
2023-02-15T13:50:57.997Z,22.40
2023-02-15T13:54:04.634Z,23.65
2023-02-15T13:57:09.370Z,22.67
2023-02-15T14:00:13.717Z,21.52
2023-02-15T14:03:30.342Z,20.38
2023-02-15T14:06:15.373Z,22.98
2023-02-15T14:09:25.580Z,22.83
2023-02-15T14:12:32.550Z,21.42
2023-02-15T14:15:14.109Z,20.65
2023-02-15T14:18:30.885Z,24.27
2023-02-15T14:24:01.001Z,24.38
2023-02-15T14:26:42.937Z,25.67
2023-02-15T14:29:56.117Z,24.25
2023-02-15T14:32:43.543Z,26.45
2023-02-15T14:35:21.088Z,27.67
2023-02-15T14:38:04.697Z,29.58
2023-02-15T14:41:03.745Z,28.90
2023-02-15T14:44:23.362Z,27.70
2023-02-15T14:47:05.123Z,28.70
2023-02-15T14:49:37.731Z,29.05
2023-02-15T14:52:09.628Z,27.60
2023-02-15T14:54:36.599Z,29.38
2023-02-15T14:57:03.871Z,34.45
2023-02-15T14:59:42.394Z,30.70
2023-02-15T15:02:09.324Z,29.40
2023-02-15T15:04:43.493Z,30.27
2023-02-15T15:07:13.439Z,30.98
2023-02-15T15:09:43.587Z,29.15
2023-02-15T15:12:23.691Z,31.42
2023-02-15T15:14:54.319Z,33.13
2023-02-15T15:17:33.942Z,28.67
2023-02-15T15:20:17.525Z,32.70
2023-02-15T15:22:44.995Z,34.70
2023-02-15T15:25:36.666Z,34.85
2023-02-15T15:28:05.662Z,43.92
2023-02-15T15:30:32.786Z,35.95
2023-02-15T15:34:04.761Z,39.17
2023-02-15T15:37:21.922Z,37.13
2023-02-15T15:40:21.921Z,41.72
2023-02-15T15:43:28.882Z,34.20
2023-02-15T15:46:35.648Z,40.13
2023-02-15T15:49:17.891Z,38.10
2023-02-15T15:51:47.983Z,38.05
2023-02-15T15:54:22.289Z,39.08
2023-02-15T15:57:07.428Z,37.27
2023-02-15T15:59:35.704Z,37.92
2023-02-15T16:02:11.722Z,34.63
2023-02-15T16:04:38.683Z,40.72
2023-02-15T16:07:17.862Z,39.15
2023-02-15T16:10:08.354Z,36.95
2023-02-15T16:12:39.670Z,37.45
2023-02-15T16:15:21.562Z,37.05
2023-02-15T16:17:56.017Z,37.70
2023-02-15T16:20:28.809Z,39.50
2023-02-15T16:23:35.849Z,37.83
2023-02-15T16:26:40.068Z,36.55
2023-02-15T16:29:26.880Z,41.25
2023-02-15T16:32:18.267Z,36.35
2023-02-15T16:35:01.934Z,38.30
2023-02-15T16:37:37.463Z,40.25
2023-02-15T16:40:05.727Z,38.33
2023-02-15T16:42:32.680Z,37.83
2023-02-15T16:45:14.404Z,36.03
2023-02-15T16:47:46.459Z,38.83
2023-02-15T16:50:31.232Z,45.05
2023-02-15T16:52:58.915Z,41.10
2023-02-15T16:55:38.506Z,35.72
2023-02-15T16:58:09.066Z,38.58
2023-02-15T17:00:42.923Z,37.95
2023-02-15T17:03:13.070Z,41.38
2023-02-15T17:05:49.222Z,41.00
2023-02-15T17:08:18.197Z,41.70
2023-02-15T17:11:10.148Z,40.70
2023-02-15T17:13:37.354Z,40.38
2023-02-15T17:16:05.387Z,45.97
2023-02-15T17:19:20.626Z,43.28
2023-02-15T17:21:56.895Z,39.40
2023-02-15T17:24:36.116Z,42.25
2023-02-15T17:27:22.110Z,47.65
2023-02-15T17:29:58.738Z,41.47
2023-02-15T17:32:29.225Z,45.80
2023-02-15T17:35:28.193Z,47.28
2023-02-15T17:38:18.130Z,43.03
2023-02-15T17:40:45.592Z,47.55
2023-02-15T17:43:12.739Z,40.35
2023-02-15T17:45:51.988Z,43.03
2023-02-15T17:48:32.286Z,48.55
2023-02-15T17:51:06.001Z,50.00
2023-02-15T17:53:34.366Z,46.05
2023-02-15T17:56:14.634Z,49.03
2023-02-15T17:58:42.355Z,48.88
2023-02-15T18:01:38.070Z,44.83
2023-02-15T18:04:29.362Z,46.47
2023-02-15T18:07:15.558Z,46.55
2023-02-15T18:10:01.491Z,44.72
2023-02-15T18:12:32.087Z,41.55
2023-02-15T18:15:01.500Z,41.35
2023-02-15T18:17:36.038Z,47.05
2023-02-15T18:20:12.005Z,44.65
2023-02-15T18:22:51.837Z,43.97
2023-02-15T18:25:24.312Z,49.58
2023-02-15T18:27:54.899Z,46.70
2023-02-15T18:30:26.846Z,48.88
2023-02-15T18:32:57.330Z,49.25
2023-02-15T18:35:29.515Z,51.10
2023-02-15T18:37:58.514Z,47.90
2023-02-15T18:40:29.028Z,47.28
2023-02-15T18:42:57.197Z,48.17
2023-02-15T18:45:33.234Z,43.47
2023-02-15T18:48:00.920Z,49.75
2023-02-15T18:50:34.110Z,45.90
2023-02-15T18:53:05.062Z,50.33
2023-02-15T18:55:33.880Z,53.40
2023-02-15T18:58:01.825Z,49.97
2023-02-15T19:00:35.576Z,51.00
2023-02-15T19:03:04.353Z,48.00
2023-02-15T19:05:33.483Z,49.50
2023-02-15T19:08:02.881Z,53.03
2023-02-15T19:10:33.944Z,50.95
2023-02-15T19:13:01.269Z,58.88
2023-02-15T19:15:36.398Z,51.38
2023-02-15T19:18:04.280Z,52.00
2023-02-15T19:20:41.856Z,52.22
2023-02-15T19:23:22.788Z,55.47
2023-02-15T19:25:56.688Z,50.33
2023-02-15T19:28:33.963Z,53.47
2023-02-15T19:31:01.479Z,52.20
2023-02-15T19:33:31.966Z,57.70
2023-02-15T19:36:00.988Z,55.40
2023-02-15T19:38:37.054Z,54.63
2023-02-15T19:41:17.331Z,55.35
2023-02-15T19:43:53.416Z,53.33
2023-02-15T19:46:24.090Z,53.33
2023-02-15T19:48:53.660Z,53.75
2023-02-15T19:51:24.180Z,50.50
2023-02-15T19:53:51.991Z,53.95
2023-02-15T19:56:27.231Z,49.85
2023-02-15T20:01:32.314Z,50.15
2023-02-15T20:04:02.997Z,55.05
2023-02-15T20:06:33.850Z,51.20
2023-02-15T20:09:05.012Z,49.10
2023-02-15T20:11:35.776Z,50.58
2023-02-15T20:14:03.076Z,56.30
2023-02-15T20:16:30.609Z,52.88
2023-02-15T20:18:58.294Z,56.05
2023-02-15T20:21:30.459Z,51.58
2023-02-15T20:23:58.631Z,51.65
2023-02-15T20:26:29.866Z,53.05
2023-02-15T20:28:57.522Z,53.70
2023-02-15T20:31:26.064Z,50.70
2023-02-15T20:33:53.448Z,56.33
2023-02-15T20:36:22.632Z,57.40
2023-02-15T21:42:50.489Z,56.53
2023-02-15T21:45:37.385Z,45.13
2023-02-15T21:48:05.070Z,51.97
2023-02-15T21:50:50.809Z,56.80
2023-02-15T21:56:00.385Z,49.25
2023-02-15T21:58:31.550Z,47.85
2023-02-15T22:01:00.854Z,50.85
2023-02-15T22:03:37.786Z,48.45
2023-02-15T22:06:05.495Z,45.75
2023-02-15T22:08:33.180Z,46.00
2023-02-15T22:11:00.421Z,48.55
2023-02-15T22:13:33.952Z,55.80
2023-02-15T22:16:04.073Z,55.08
2023-02-15T22:18:34.309Z,52.20
2023-02-15T22:21:03.687Z,50.08
2023-02-15T22:23:31.188Z,52.45
2023-02-15T22:26:28.515Z,48.70
2023-02-15T22:28:57.274Z,49.80
2023-02-15T22:31:24.329Z,52.58
2023-02-15T22:33:51.559Z,55.03
2023-02-15T22:36:26.801Z,55.30
2023-02-15T22:38:55.299Z,50.72
2023-02-15T22:41:28.242Z,54.53
2023-02-15T22:43:56.751Z,54.30
2023-02-15T22:46:25.149Z,50.47
2023-02-15T22:48:53.581Z,51.80
2023-02-15T22:51:24.532Z,55.03
2023-02-15T22:53:53.727Z,43.88
2023-02-15T22:56:32.221Z,43.08
2023-02-15T22:59:16.974Z,45.17
2023-02-15T23:01:44.048Z,46.43
2023-02-15T23:04:23.890Z,47.40
2023-02-15T23:06:53.281Z,48.38
2023-02-15T23:09:21.386Z,47.88
2023-02-15T23:11:51.055Z,47.03
2023-02-15T23:14:33.359Z,49.13
2023-02-15T23:17:03.833Z,47.00
2023-02-15T23:19:31.874Z,49.60
2023-02-15T23:21:58.868Z,46.95
2023-02-15T23:24:34.419Z,51.78
2023-02-15T23:27:19.685Z,49.67
2023-02-15T23:29:46.890Z,49.53
2023-02-15T23:32:14.722Z,48.63
2023-02-15T23:34:43.208Z,52.38
2023-02-15T23:37:14.452Z,55.25
2023-02-15T23:39:59.977Z,51.10
2023-02-15T23:42:34.464Z,53.88
2023-02-15T23:45:02.672Z,52.47
2023-02-15T23:47:53.617Z,51.97
2023-02-15T23:50:30.276Z,50.53
2023-02-15T23:52:58.414Z,50.63
2023-02-15T23:55:38.859Z,53.05
2023-02-15T23:58:14.965Z,47.67
